LFCK/DCM METAR and TAF weather

Enter ICAO airport designator
Station Type Date Time Source
LFCK METAR 2021/04/18 03:00 UTC NOAA

LFCK 180300Z AUTO VRB02KT CAVOK 03/00 Q1021


Station Type Date Time Source
LFCK Decoded METAR 2021/04/18 03:00 UTC NOAA

Station name not available
Apr 17, 2021 - 11:00 PM EDT / 2021.04.18 0300 UTC
Wind: Variable at 2 MPH (2 KT):0
Visibility: greater than 7 mile(s):0
Temperature: 37 F (3 C)
Dew Point: 32 F (0 C)
Relative Humidity: 80%
Pressure (altimeter): 30.15 in. Hg (1021 hPa)
ob: LFCK 180300Z AUTO VRB02KT CAVOK 03/00 Q1021
cycle: 3

Station Type Date Time Source
LFCK TAF UTC NOAA

Error!

Example: see airport list